Time;durP1;ratioP1;P1;durP2;ratioP2;P2;SDS_P1;SDS_P2;PMS_P1;PMS_P2;Temp;Humidity;BMP_temperature;BMP_pressure;BME280_temperature;BME280_humidity;BME280_pressure;Samples;Min_cycle;Max_cycle;Signal;HPM_P1;HPM_P2
2023/03/13 00:00:51;;;;;;;77.90;50.90;;;17.60;61.80;;;;;;4999454;27;91695;-47
2023/03/13 00:03:17;;;;;;;81.75;50.88;;;17.60;61.70;;;;;;4989029;27;91397;-45
2023/03/13 00:05:42;;;;;;;77.97;50.50;;;17.60;61.80;;;;;;4999114;27;90519;-48
2023/03/13 00:08:08;;;;;;;78.00;50.58;;;17.60;61.70;;;;;;5007218;27;91794;-46
2023/03/13 00:10:40;;;;;;;77.55;50.42;;;17.60;61.70;;;;;;4999817;27;91091;-46
2023/03/13 00:13:09;;;;;;;78.63;50.50;;;17.60;61.60;;;;;;4990842;27;91098;-45
2023/03/13 00:15:35;;;;;;;77.43;50.22;;;17.60;61.50;;;;;;5003296;27;90831;-45
2023/03/13 00:18:01;;;;;;;76.50;50.40;;;17.60;61.50;;;;;;4993911;27;94171;-47
2023/03/13 00:20:26;;;;;;;76.20;50.28;;;17.60;61.40;;;;;;5004871;27;92519;-50
2023/03/13 00:22:52;;;;;;;76.88;50.20;;;17.60;61.40;;;;;;5008581;27;90563;-47
2023/03/13 00:25:18;;;;;;;76.40;50.67;;;17.60;61.50;;;;;;5011461;27;91621;-45
2023/03/13 00:27:44;;;;;;;77.65;50.47;;;17.50;61.50;;;;;;5012309;27;91194;-45
2023/03/13 00:30:10;;;;;;;77.63;50.45;;;17.50;61.50;;;;;;5001391;27;92503;-46
2023/03/13 00:32:44;;;;;;;79.85;50.13;;;17.60;61.50;;;;;;4989200;27;95520;-47
2023/03/13 00:35:11;;;;;;;76.25;50.20;;;17.60;61.40;;;;;;4979641;28;97586;-47
2023/03/13 00:37:37;;;;;;;77.40;50.60;;;17.50;61.60;;;;;;5001134;27;91244;-45
2023/03/13 00:40:04;;;;;;;75.93;50.45;;;17.50;61.50;;;;;;5003258;27;90796;-45
2023/03/13 00:42:30;;;;;;;77.63;50.35;;;17.50;61.50;;;;;;5007276;27;90616;-47
2023/03/13 00:44:56;;;;;;;76.10;50.20;;;17.50;61.50;;;;;;4999648;27;88948;-44
2023/03/13 00:47:21;;;;;;;76.25;50.08;;;17.50;61.40;;;;;;4984208;27;91260;-45
2023/03/13 00:49:47;;;;;;;75.55;50.00;;;17.60;61.40;;;;;;5000702;27;91078;-46
2023/03/13 00:52:12;;;;;;;75.88;50.08;;;17.60;61.30;;;;;;4991799;27;91571;-48
2023/03/13 00:54:38;;;;;;;77.80;50.15;;;17.60;61.70;;;;;;4998604;27;92829;-46
2023/03/13 00:57:04;;;;;;;75.53;50.10;;;17.60;61.20;;;;;;4993494;27;92660;-47
2023/03/13 00:59:30;;;;;;;75.10;50.05;;;17.50;61.30;;;;;;4990279;27;92215;-48
2023/03/13 01:01:55;;;;;;;76.97;50.13;;;17.60;61.30;;;;;;4996018;27;92032;-45
2023/03/13 01:04:21;;;;;;;75.70;50.03;;;17.60;61.10;;;;;;5006398;27;91213;-48
2023/03/13 01:06:47;;;;;;;76.75;50.25;;;17.60;61.10;;;;;;4993567;27;91501;-48
2023/03/13 01:09:14;;;;;;;75.07;49.67;;;17.50;61.20;;;;;;4990112;27;91335;-46
2023/03/13 01:11:42;;;;;;;74.65;49.85;;;17.50;61.10;;;;;;5004451;27;91867;-45
2023/03/13 01:14:11;;;;;;;74.90;50.00;;;17.50;61.00;;;;;;4986302;27;92170;-46
2023/03/13 01:16:38;;;;;;;74.75;49.85;;;17.60;61.10;;;;;;4998703;27;91570;-47
2023/03/13 01:19:09;;;;;;;76.32;50.22;;;17.50;61.10;;;;;;4990397;27;91405;-45
2023/03/13 01:21:36;;;;;;;74.82;49.63;;;17.60;61.20;;;;;;4982907;27;91700;-48
2023/03/13 01:24:02;;;;;;;73.95;50.05;;;17.60;61.00;;;;;;4996334;27;96079;-48
2023/03/13 01:26:28;;;;;;;75.97;50.03;;;17.60;61.00;;;;;;4997340;27;91143;-48
2023/03/13 01:28:55;;;;;;;75.70;50.20;;;17.60;60.90;;;;;;4996228;27;91944;-46
2023/03/13 01:31:32;;;;;;;73.88;49.55;;;17.60;60.90;;;;;;5000619;27;90736;-46
2023/03/13 01:34:00;;;;;;;75.57;49.90;;;17.60;60.80;;;;;;4999385;27;91501;-45
2023/03/13 01:36:26;;;;;;;77.10;49.95;;;17.60;61.00;;;;;;5006913;27;91092;-45
2023/03/13 01:38:54;;;;;;;76.57;50.08;;;17.60;60.80;;;;;;5001987;27;91281;-46
2023/03/13 01:41:21;;;;;;;75.40;50.08;;;17.60;60.80;;;;;;5002846;27;91009;-44
2023/03/13 01:43:47;;;;;;;75.72;50.10;;;17.60;60.70;;;;;;5008926;27;90626;-45
2023/03/13 01:46:16;;;;;;;76.15;50.20;;;17.70;60.60;;;;;;5006388;27;91450;-47
2023/03/13 01:48:59;;;;;;;74.13;49.78;;;17.70;60.60;;;;;;4992946;27;90404;-47
2023/03/13 01:51:36;;;;;;;75.75;49.90;;;17.60;60.70;;;;;;5000876;27;90160;-46
2023/03/13 01:54:05;;;;;;;73.65;49.65;;;17.60;60.80;;;;;;4996435;27;93366;-46
2023/03/13 01:56:38;;;;;;;74.15;49.42;;;17.60;60.60;;;;;;4987988;27;96719;-45
2023/03/13 01:59:05;;;;;;;75.55;49.92;;;17.70;60.60;;;;;;4997834;27;96193;-45
2023/03/13 02:01:32;;;;;;;75.63;49.85;;;17.70;60.60;;;;;;5008357;27;89986;-46
2023/03/13 02:03:58;;;;;;;74.05;49.38;;;17.70;60.50;;;;;;4988201;27;90821;-46
2023/03/13 02:06:28;;;;;;;75.28;49.95;;;17.70;60.40;;;;;;4989320;27;93737;-46
2023/03/13 02:08:58;;;;;;;74.15;49.67;;;17.70;60.50;;;;;;4993542;27;91075;-47
2023/03/13 02:11:26;;;;;;;74.03;49.70;;;17.60;60.50;;;;;;4997270;27;92846;-48
2023/03/13 02:13:53;;;;;;;74.10;49.13;;;17.70;60.50;;;;;;5000996;27;89963;-47
2023/03/13 02:16:20;;;;;;;73.95;49.70;;;17.70;60.60;;;;;;5006659;27;92853;-46
2023/03/13 02:18:47;;;;;;;76.00;49.75;;;17.70;60.30;;;;;;5010910;27;92459;-46
2023/03/13 02:21:35;;;;;;;74.68;49.78;;;17.80;60.20;;;;;;4996838;27;95927;-45
2023/03/13 02:24:09;;;;;;;73.72;49.45;;;17.80;60.00;;;;;;5005463;27;89533;-45
2023/03/13 02:26:35;;;;;;;73.80;49.63;;;17.80;60.20;;;;;;5009228;27;96410;-49
2023/03/13 02:29:00;;;;;;;73.72;49.65;;;17.80;60.10;;;;;;5008522;27;92021;-46
2023/03/13 02:31:26;;;;;;;74.97;49.65;;;17.80;60.10;;;;;;5010020;27;97845;-47
2023/03/13 02:33:54;;;;;;;75.28;49.90;;;17.80;60.10;;;;;;4995013;27;96293;-48
2023/03/13 02:36:20;;;;;;;75.32;49.80;;;17.80;60.20;;;;;;5000753;27;98312;-44
2023/03/13 02:39:05;;;;;;;74.35;49.95;;;17.80;60.10;;;;;;5002244;27;90411;-46
2023/03/13 02:41:33;;;;;;;73.20;49.55;;;17.80;60.20;;;;;;5008446;27;91909;-46
2023/03/13 02:43:59;;;;;;;75.35;49.83;;;17.80;60.10;;;;;;5003320;27;89607;-45
2023/03/13 02:46:25;;;;;;;74.68;50.03;;;17.70;60.20;;;;;;5002935;27;93100;-47
2023/03/13 02:48:53;;;;;;;74.35;49.97;;;17.80;60.10;;;;;;5005737;27;90866;-45
2023/03/13 02:51:28;;;;;;;74.75;49.58;;;17.80;60.00;;;;;;4982147;28;90302;-46
2023/03/13 02:53:58;;;;;;;74.82;49.72;;;17.80;60.20;;;;;;4999205;27;91861;-46
2023/03/13 02:56:26;;;;;;;74.60;49.65;;;17.80;60.00;;;;;;5011344;27;93503;-46
2023/03/13 02:58:52;;;;;;;73.97;49.53;;;17.80;60.00;;;;;;4991989;27;90907;-46
2023/03/13 03:01:17;;;;;;;73.47;49.65;;;17.80;59.90;;;;;;5004479;27;89863;-47
2023/03/13 03:03:43;;;;;;;73.25;49.55;;;17.90;59.90;;;;;;5010913;27;90510;-45
2023/03/13 03:06:09;;;;;;;73.22;49.63;;;17.80;59.90;;;;;;4994293;27;94996;-46
2023/03/13 03:08:35;;;;;;;73.78;49.92;;;17.80;60.00;;;;;;5005207;27;93937;-48
2023/03/13 03:11:01;;;;;;;74.63;49.85;;;17.80;60.10;;;;;;4997033;27;92793;-45
2023/03/13 03:13:26;;;;;;;74.82;49.78;;;17.80;59.90;;;;;;4996737;27;94407;-46
2023/03/13 03:15:52;;;;;;;74.50;49.42;;;17.80;60.00;;;;;;4993261;27;95121;-45
2023/03/13 03:18:18;;;;;;;74.40;49.50;;;17.80;60.00;;;;;;5007514;27;96248;-46
2023/03/13 03:20:44;;;;;;;75.20;49.75;;;17.80;60.00;;;;;;4998692;27;92653;-48
2023/03/13 03:23:10;;;;;;;73.82;49.53;;;17.80;59.90;;;;;;4994852;27;93212;-46
2023/03/13 03:25:35;;;;;;;74.32;49.78;;;17.90;59.80;;;;;;5003658;27;91707;-47
2023/03/13 03:28:01;;;;;;;73.90;49.67;;;17.90;59.70;;;;;;4998500;27;92499;-45
2023/03/13 03:30:27;;;;;;;73.72;49.53;;;17.90;59.70;;;;;;4998895;27;92626;-46
2023/03/13 03:32:52;;;;;;;73.18;49.47;;;17.90;59.70;;;;;;5011556;27;90212;-47
2023/03/13 03:35:18;;;;;;;72.82;49.35;;;17.80;59.70;;;;;;5004890;27;92016;-49
2023/03/13 03:37:43;;;;;;;73.80;49.65;;;17.80;59.90;;;;;;4997233;27;91600;-46
2023/03/13 03:40:10;;;;;;;73.63;49.53;;;17.80;59.80;;;;;;5009974;27;90890;-45
2023/03/13 03:42:36;;;;;;;74.03;49.63;;;17.80;59.70;;;;;;5003854;27;96160;-45
2023/03/13 03:45:01;;;;;;;74.93;49.95;;;17.90;59.70;;;;;;4995840;27;93704;-50
2023/03/13 03:47:27;;;;;;;74.00;49.67;;;17.90;59.60;;;;;;5002696;27;92391;-45
2023/03/13 03:49:53;;;;;;;73.40;49.50;;;17.90;59.60;;;;;;4998761;27;91046;-45
2023/03/13 03:52:18;;;;;;;73.45;49.53;;;17.90;59.60;;;;;;5011464;27;89899;-46
2023/03/13 03:54:44;;;;;;;73.15;49.35;;;17.90;59.60;;;;;;5009741;27;91420;-47
2023/03/13 03:57:10;;;;;;;73.53;49.55;;;17.90;59.70;;;;;;5002135;27;90877;-47
2023/03/13 03:59:35;;;;;;;74.03;49.88;;;17.80;59.70;;;;;;5014432;27;90159;-45
2023/03/13 04:02:01;;;;;;;73.65;49.40;;;17.80;59.80;;;;;;5014244;27;90384;-45
2023/03/13 04:04:27;;;;;;;74.25;49.53;;;17.80;59.90;;;;;;5000898;27;93411;-46
2023/03/13 04:06:53;;;;;;;72.88;49.33;;;17.70;60.00;;;;;;4985555;27;91175;-48
2023/03/13 04:09:19;;;;;;;75.18;49.22;;;17.80;60.50;;;;;;4998775;27;92118;-46
2023/03/13 04:11:44;;;;;;;73.97;49.83;;;17.90;59.80;;;;;;4994493;27;91316;-46
2023/03/13 04:14:10;;;;;;;75.72;49.67;;;17.80;59.70;;;;;;5002326;27;90695;-47
2023/03/13 04:16:36;;;;;;;74.00;49.70;;;17.80;59.70;;;;;;5002795;27;90847;-46
2023/03/13 04:19:01;;;;;;;73.32;49.42;;;17.80;59.70;;;;;;4999433;27;90032;-45
2023/03/13 04:21:27;;;;;;;74.07;49.45;;;17.90;59.70;;;;;;4999581;27;91372;-46
2023/03/13 04:23:53;;;;;;;73.70;49.60;;;17.80;59.80;;;;;;5003619;22;92303;-47
2023/03/13 04:26:18;;;;;;;74.30;49.70;;;17.90;59.70;;;;;;4996993;27;95667;-49
2023/03/13 04:28:44;;;;;;;73.53;49.63;;;17.90;60.40;;;;;;4990132;27;95079;-49
2023/03/13 04:31:09;;;;;;;73.63;49.55;;;17.80;59.70;;;;;;4998240;27;92004;-47
2023/03/13 04:33:35;;;;;;;73.47;49.50;;;17.80;59.70;;;;;;4992377;27;92671;-48
2023/03/13 04:36:01;;;;;;;74.30;49.65;;;17.90;59.60;;;;;;5002654;27;92513;-48
2023/03/13 04:38:27;;;;;;;73.43;49.53;;;17.90;59.70;;;;;;4999451;27;90438;-44
2023/03/13 04:40:53;;;;;;;73.43;49.60;;;17.90;59.60;;;;;;4992244;27;94192;-45
2023/03/13 04:43:18;;;;;;;73.38;49.55;;;17.80;59.60;;;;;;5003467;27;96374;-46
2023/03/13 04:45:45;;;;;;;73.88;49.60;;;17.90;59.60;;;;;;5002059;27;91552;-46
2023/03/13 04:48:11;;;;;;;73.75;49.55;;;17.90;59.70;;;;;;4994681;27;91221;-49
2023/03/13 04:50:37;;;;;;;73.90;49.65;;;17.90;59.60;;;;;;5012563;27;90032;-48
2023/03/13 04:53:03;;;;;;;73.15;49.53;;;17.90;59.50;;;;;;5007660;27;90363;-45
2023/03/13 04:55:29;;;;;;;74.78;49.72;;;17.90;59.50;;;;;;4999415;27;93925;-46
2023/03/13 04:57:54;;;;;;;75.45;49.85;;;17.90;59.60;;;;;;5002758;27;94574;-47
2023/03/13 05:00:20;;;;;;;74.18;49.75;;;17.90;59.60;;;;;;5007929;27;90303;-47
2023/03/13 05:02:46;;;;;;;75.00;49.92;;;17.80;59.50;;;;;;4984865;27;95786;-45
2023/03/13 05:05:12;;;;;;;74.57;49.72;;;17.90;59.60;;;;;;4989479;27;91044;-45
2023/03/13 05:07:38;;;;;;;73.18;49.60;;;17.90;59.50;;;;;;4991840;27;90646;-47
2023/03/13 05:10:04;;;;;;;74.13;49.53;;;17.90;59.60;;;;;;4997817;27;91402;-48
2023/03/13 05:12:29;;;;;;;73.97;49.53;;;17.80;59.70;;;;;;5000821;27;91430;-45
2023/03/13 05:14:55;;;;;;;73.95;49.67;;;17.80;59.70;;;;;;4990265;27;92259;-46
2023/03/13 05:17:21;;;;;;;74.82;49.70;;;17.80;59.70;;;;;;4996927;27;89759;-46
2023/03/13 05:19:46;;;;;;;75.15;49.97;;;17.70;60.00;;;;;;4991541;27;92985;-48
2023/03/13 05:22:12;;;;;;;75.05;50.08;;;17.80;59.90;;;;;;4996325;27;92428;-46
2023/03/13 05:24:37;;;;;;;75.25;49.70;;;17.80;59.90;;;;;;4979559;27;93057;-50
2023/03/13 05:27:03;;;;;;;76.43;49.85;;;17.90;59.70;;;;;;4993623;28;94816;-46
2023/03/13 05:29:29;;;;;;;74.22;49.47;;;17.90;59.60;;;;;;4981176;28;90282;-46
2023/03/13 05:31:54;;;;;;;74.93;49.90;;;17.90;59.60;;;;;;4975854;28;95052;-45
2023/03/13 05:34:20;;;;;;;75.03;49.50;;;17.90;59.60;;;;;;4980204;28;93866;-47
2023/03/13 05:36:46;;;;;;;74.85;49.60;;;17.90;59.60;;;;;;4975855;28;90197;-48
2023/03/13 05:39:12;;;;;;;74.05;49.85;;;17.80;59.60;;;;;;4977354;28;90533;-47
2023/03/13 05:41:37;;;;;;;74.35;49.97;;;17.90;59.70;;;;;;4973477;28;90756;-45
2023/03/13 05:44:03;;;;;;;74.00;49.63;;;17.90;59.60;;;;;;4979289;28;90962;-46
2023/03/13 05:46:29;;;;;;;74.97;49.78;;;17.90;59.60;;;;;;4992063;28;91412;-46
2023/03/13 05:48:55;;;;;;;76.72;49.67;;;17.90;59.60;;;;;;4984367;28;89884;-50
2023/03/13 05:51:21;;;;;;;75.30;49.95;;;17.90;59.50;;;;;;4978780;28;90126;-48
2023/03/13 05:53:47;;;;;;;74.85;49.85;;;17.90;59.50;;;;;;4989045;28;99531;-46
2023/03/13 05:56:12;;;;;;;75.00;50.05;;;17.90;59.50;;;;;;4990971;28;90049;-47
2023/03/13 05:58:38;;;;;;;74.22;49.60;;;17.90;59.40;;;;;;4985205;28;92576;-45
2023/03/13 06:01:11;;;;;;;74.35;49.53;;;17.90;59.50;;;;;;4979269;28;94344;-45
2023/03/13 06:03:37;;;;;;;74.07;49.53;;;17.90;59.50;;;;;;4974147;28;91724;-46
2023/03/13 06:06:03;;;;;;;74.20;49.55;;;17.90;59.60;;;;;;4979712;28;91479;-46
2023/03/13 06:08:29;;;;;;;73.72;49.85;;;17.90;59.60;;;;;;4971160;28;90584;-46
2023/03/13 06:10:59;;;;;;;78.38;50.15;;;17.90;59.70;;;;;;4983364;28;92542;-44
2023/03/13 06:13:24;;;;;;;76.47;49.70;;;17.90;59.70;;;;;;4974244;28;91826;-46
2023/03/13 06:15:54;;;;;;;76.65;50.00;;;17.90;59.70;;;;;;4974221;28;96005;-47
2023/03/13 06:18:21;;;;;;;74.38;49.90;;;17.90;59.50;;;;;;4979185;28;89871;-48
2023/03/13 06:20:48;;;;;;;77.88;50.17;;;17.80;59.80;;;;;;4984506;28;92455;-45
2023/03/13 06:23:14;;;;;;;75.45;49.55;;;17.90;59.70;;;;;;4978982;28;91752;-46
2023/03/13 06:25:40;;;;;;;73.65;49.80;;;17.90;59.80;;;;;;4975966;28;94586;-47
2023/03/13 06:28:06;;;;;;;77.38;50.13;;;17.90;59.80;;;;;;4980613;28;91025;-46
2023/03/13 06:30:31;;;;;;;75.03;50.20;;;17.90;59.60;;;;;;4973819;28;91243;-49
2023/03/13 06:32:57;;;;;;;77.90;50.05;;;18.00;59.40;;;;;;4984389;28;91771;-47
2023/03/13 06:35:23;;;;;;;76.82;50.13;;;18.00;59.40;;;;;;4986737;28;91572;-46
2023/03/13 06:37:49;;;;;;;77.82;50.05;;;18.00;59.20;;;;;;4977971;28;92454;-46
2023/03/13 06:40:15;;;;;;;76.18;50.33;;;18.00;59.30;;;;;;4975201;28;93254;-45
2023/03/13 06:42:40;;;;;;;81.00;50.47;;;17.80;59.60;;;;;;4977905;28;93528;-45
2023/03/13 06:45:07;;;;;;;77.88;50.75;;;17.90;59.60;;;;;;4998589;28;90030;-47
2023/03/13 06:47:32;;;;;;;79.32;50.25;;;17.90;59.70;;;;;;4993902;28;89868;-45
2023/03/13 06:49:58;;;;;;;76.88;50.47;;;17.90;59.90;;;;;;4987498;28;92439;-46
2023/03/13 06:52:24;;;;;;;77.82;50.45;;;17.90;59.80;;;;;;5003862;28;89273;-47
2023/03/13 06:54:50;;;;;;;76.88;50.63;;;17.90;59.60;;;;;;4981001;28;93422;-46
2023/03/13 06:57:15;;;;;;;75.63;50.30;;;17.90;59.50;;;;;;4993663;28;89987;-45
2023/03/13 06:59:41;;;;;;;77.47;50.47;;;17.90;60.00;;;;;;4978623;28;92585;-46
2023/03/13 07:02:10;;;;;;;80.60;50.80;;;17.90;59.50;;;;;;4985345;28;90939;-45
2023/03/13 07:04:36;;;;;;;77.18;50.20;;;17.90;59.70;;;;;;4991338;28;90028;-47
2023/03/13 07:07:02;;;;;;;76.65;50.65;;;17.80;60.10;;;;;;4979217;28;93525;-45
2023/03/13 07:09:27;;;;;;;78.63;50.35;;;17.90;60.00;;;;;;4988814;28;90092;-45
2023/03/13 07:11:53;;;;;;;78.97;51.00;;;17.90;60.00;;;;;;4985794;28;93434;-49
2023/03/13 07:14:19;;;;;;;76.75;50.50;;;17.90;59.90;;;;;;4989482;28;89903;-47
2023/03/13 07:16:45;;;;;;;80.22;50.90;;;17.90;60.00;;;;;;4977174;28;89861;-46
2023/03/13 07:19:12;;;;;;;77.32;50.97;;;18.00;59.90;;;;;;4972284;28;94045;-45
2023/03/13 07:21:37;;;;;;;79.43;50.65;;;18.00;60.70;;;;;;4988976;28;91143;-48
2023/03/13 07:24:03;;;;;;;78.30;50.78;;;18.00;59.90;;;;;;4981760;28;94191;-48
2023/03/13 07:26:29;;;;;;;81.03;50.90;;;18.00;59.70;;;;;;4990509;28;90250;-46
2023/03/13 07:28:56;;;;;;;86.97;51.33;;;18.10;59.60;;;;;;4991020;28;90151;-48
2023/03/13 07:31:25;;;;;;;77.18;50.65;;;18.10;59.60;;;;;;4995177;28;95547;-46
2023/03/13 07:33:55;;;;;;;79.78;51.00;;;18.10;59.70;;;;;;4982033;28;89855;-45
2023/03/13 07:36:21;;;;;;;79.15;51.08;;;18.00;59.70;;;;;;4983468;28;93749;-48
2023/03/13 07:38:48;;;;;;;79.28;51.08;;;18.10;59.70;;;;;;4993573;28;90251;-47
2023/03/13 07:41:14;;;;;;;80.40;51.00;;;18.00;59.90;;;;;;4992836;28;92348;-45
2023/03/13 07:43:40;;;;;;;77.10;50.80;;;18.00;59.80;;;;;;4980413;28;89773;-45
2023/03/13 07:46:07;;;;;;;79.25;51.63;;;18.00;59.80;;;;;;4982973;28;94555;-46
2023/03/13 07:48:38;;;;;;;76.45;50.75;;;18.10;59.80;;;;;;5005096;28;91282;-47
2023/03/13 07:51:10;;;;;;;78.25;50.70;;;18.00;59.80;;;;;;4988542;28;92003;-46
2023/03/13 07:53:36;;;;;;;79.95;50.90;;;18.10;59.80;;;;;;4981094;28;93727;-47
2023/03/13 07:56:04;;;;;;;76.32;50.83;;;18.10;59.70;;;;;;4987955;28;93579;-46
2023/03/13 07:58:33;;;;;;;78.03;50.60;;;18.10;59.70;;;;;;4971438;28;94339;-48
2023/03/13 08:00:59;;;;;;;79.18;51.25;;;18.10;59.70;;;;;;4988776;28;92171;-45
2023/03/13 08:03:26;;;;;;;77.03;51.25;;;18.20;60.00;;;;;;4985164;28;93068;-47
2023/03/13 08:06:04;;;;;;;78.97;51.28;;;18.20;60.10;;;;;;4973502;28;90648;-46
2023/03/13 08:08:30;;;;;;;78.95;50.95;;;18.30;59.60;;;;;;4978750;28;92180;-46
2023/03/13 08:11:00;;;;;;;78.60;50.78;;;18.30;59.40;;;;;;4995594;28;91003;-46
2023/03/13 08:13:26;;;;;;;77.63;50.80;;;18.30;59.20;;;;;;4979973;28;92028;-46
2023/03/13 08:15:51;;;;;;;78.55;50.55;;;18.40;59.20;;;;;;4986579;28;91202;-45
2023/03/13 08:18:17;;;;;;;80.78;50.80;;;18.40;59.20;;;;;;4994858;28;91277;-45
2023/03/13 08:20:43;;;;;;;78.88;50.97;;;18.40;59.10;;;;;;4988977;28;90565;-45
2023/03/13 08:23:08;;;;;;;77.68;50.65;;;18.40;59.20;;;;;;4990080;28;92638;-45
2023/03/13 08:25:34;;;;;;;78.90;50.47;;;18.40;59.20;;;;;;4987772;28;89610;-46
2023/03/13 08:27:59;;;;;;;77.22;50.85;;;18.40;59.20;;;;;;4988759;28;92849;-46
2023/03/13 08:30:25;;;;;;;77.38;50.90;;;18.40;59.10;;;;;;4987232;28;91292;-45
2023/03/13 08:32:51;;;;;;;77.45;51.00;;;18.50;59.10;;;;;;4986159;28;92730;-46
2023/03/13 08:35:16;;;;;;;77.43;50.75;;;18.40;59.00;;;;;;4999245;28;91013;-45
2023/03/13 08:37:42;;;;;;;79.38;50.65;;;18.40;59.10;;;;;;4982851;28;94454;-47
2023/03/13 08:40:12;;;;;;;78.50;51.22;;;18.50;59.10;;;;;;4986629;28;94849;-45
2023/03/13 08:42:39;;;;;;;77.53;50.83;;;18.50;59.70;;;;;;4990497;28;92076;-45
2023/03/13 08:45:05;;;;;;;77.97;50.88;;;18.60;59.00;;;;;;4999479;28;89649;-48
2023/03/13 08:47:31;;;;;;;76.57;50.65;;;18.60;59.00;;;;;;4984698;28;91306;-46
2023/03/13 08:49:57;;;;;;;77.32;50.58;;;18.60;59.10;;;;;;4979215;28;92628;-46
2023/03/13 08:52:22;;;;;;;77.22;50.67;;;18.60;59.00;;;;;;4986930;28;90306;-46
2023/03/13 08:54:48;;;;;;;78.40;50.75;;;18.60;58.90;;;;;;4990776;28;91083;-47
2023/03/13 08:57:14;;;;;;;77.88;50.88;;;18.60;58.80;;;;;;4986791;28;91084;-46
2023/03/13 08:59:39;;;;;;;78.32;51.15;;;18.60;59.00;;;;;;4986499;28;91175;-44
2023/03/13 09:02:05;;;;;;;78.05;50.72;;;18.60;58.90;;;;;;4982592;28;92609;-45
2023/03/13 09:04:31;;;;;;;77.28;50.55;;;18.70;58.80;;;;;;4983803;28;90510;-47
2023/03/13 09:06:57;;;;;;;78.13;50.90;;;18.70;58.80;;;;;;4978934;28;92829;-47
2023/03/13 09:09:22;;;;;;;77.18;50.80;;;18.70;58.90;;;;;;4980693;27;94277;-47
2023/03/13 09:11:48;;;;;;;80.90;51.08;;;18.70;58.80;;;;;;4981010;28;91956;-47
2023/03/13 09:14:14;;;;;;;79.53;51.38;;;18.70;58.80;;;;;;4983311;28;91520;-45
2023/03/13 09:16:39;;;;;;;78.80;50.92;;;18.70;58.70;;;;;;4973443;28;90121;-45
2023/03/13 09:19:05;;;;;;;77.13;50.45;;;18.80;58.70;;;;;;4992188;28;96667;-49
2023/03/13 09:21:34;;;;;;;76.65;50.75;;;18.80;58.70;;;;;;4977498;28;93591;-45
2023/03/13 09:24:00;;;;;;;79.07;50.83;;;18.80;58.70;;;;;;4980256;28;90889;-47
2023/03/13 09:26:27;;;;;;;80.47;51.15;;;18.80;58.70;;;;;;4995397;28;92514;-50
2023/03/13 09:28:53;;;;;;;79.57;51.05;;;18.80;58.80;;;;;;4984332;28;95920;-45
2023/03/13 09:31:22;;;;;;;77.88;50.75;;;18.80;58.80;;;;;;5003044;28;90281;-46
2023/03/13 09:33:48;;;;;;;77.03;50.63;;;18.70;58.70;;;;;;4990699;28;90130;-44
2023/03/13 09:36:16;;;;;;;79.45;50.72;;;18.80;58.80;;;;;;4991984;28;91447;-51
2023/03/13 09:38:42;;;;;;;77.63;50.83;;;18.80;58.80;;;;;;4993406;28;90937;-46
2023/03/13 09:41:16;;;;;;;78.28;50.95;;;18.80;58.70;;;;;;4994493;28;89907;-46
2023/03/13 09:43:57;;;;;;;77.43;50.78;;;18.80;58.80;;;;;;4988015;28;88984;-45
2023/03/13 09:46:30;;;;;;;77.68;51.03;;;18.80;58.90;;;;;;4983250;28;94603;-46
2023/03/13 09:49:08;;;;;;;78.13;50.95;;;18.80;58.90;;;;;;4998486;28;90876;-46
2023/03/13 09:51:41;;;;;;;76.75;50.65;;;18.80;58.90;;;;;;4994088;28;91261;-45
2023/03/13 09:54:27;;;;;;;78.25;50.92;;;18.80;58.70;;;;;;4984671;28;91509;-46
2023/03/13 09:57:15;;;;;;;79.15;50.67;;;18.80;58.80;;;;;;4987796;28;91300;-46
2023/03/13 09:59:47;;;;;;;78.72;50.92;;;18.80;58.70;;;;;;4988487;28;94386;-46
2023/03/13 10:02:26;;;;;;;78.65;50.95;;;18.80;58.80;;;;;;5000583;28;92011;-46
2023/03/13 10:04:59;;;;;;;78.68;50.72;;;18.80;58.80;;;;;;4986083;28;89750;-47
2023/03/13 10:07:24;;;;;;;78.53;51.20;;;18.80;58.80;;;;;;4983230;28;91988;-45
2023/03/13 10:09:52;;;;;;;77.97;50.75;;;18.90;58.90;;;;;;4996510;28;91153;-45
2023/03/13 10:12:26;;;;;;;77.18;50.95;;;18.80;58.80;;;;;;4989344;28;92969;-46
2023/03/13 10:15:26;;;;;;;79.05;51.10;;;18.80;58.90;;;;;;4988742;28;89621;-45
2023/03/13 10:17:51;;;;;;;77.15;50.47;;;18.90;59.00;;;;;;4985970;27;94643;-46
2023/03/13 10:20:17;;;;;;;78.80;50.97;;;18.90;59.00;;;;;;4986482;28;91735;-48
2023/03/13 10:22:47;;;;;;;78.13;50.83;;;18.90;58.90;;;;;;4994834;28;91513;-46
2023/03/13 10:25:16;;;;;;;77.80;50.40;;;18.80;58.90;;;;;;4987467;28;93083;-45
2023/03/13 10:27:43;;;;;;;77.40;50.65;;;18.90;59.00;;;;;;4995770;28;90139;-47
2023/03/13 10:30:22;;;;;;;77.82;50.90;;;18.90;59.00;;;;;;4984278;28;90549;-45
2023/03/13 10:32:48;;;;;;;78.72;50.95;;;18.90;59.10;;;;;;4987219;28;94980;-45
2023/03/13 10:35:32;;;;;;;78.82;51.03;;;19.00;59.10;;;;;;4989529;27;89679;-46
2023/03/13 10:38:09;;;;;;;79.88;51.13;;;18.90;59.10;;;;;;4999740;28;91235;-48
2023/03/13 10:40:35;;;;;;;78.45;51.10;;;19.00;59.50;;;;;;4989524;28;90988;-48
2023/03/13 10:43:02;;;;;;;78.53;51.00;;;19.00;59.40;;;;;;4986163;28;93639;-45
2023/03/13 10:45:34;;;;;;;80.35;51.30;;;19.00;60.00;;;;;;4987903;28;92187;-46
2023/03/13 10:48:01;;;;;;;;;;;19.00;59.30;;;;;;4991656;28;92144;-47
2023/03/13 10:50:31;;;;;;;79.25;51.08;;;19.00;59.10;;;;;;4991843;28;89592;-48
2023/03/13 10:53:03;;;;;;;79.43;51.35;;;19.00;59.00;;;;;;4988367;28;90357;-45
2023/03/13 10:55:29;;;;;;;80.43;51.40;;;19.00;59.00;;;;;;4996072;28;91221;-48
2023/03/13 10:57:59;;;;;;;80.03;51.05;;;19.10;59.10;;;;;;4999850;28;89789;-45
2023/03/13 11:00:40;;;;;;;81.28;51.60;;;19.00;59.20;;;;;;4975494;28;93441;-47
2023/03/13 11:03:22;;;;;;;80.10;51.35;;;19.00;59.70;;;;;;4977011;28;90308;-46
2023/03/13 11:05:57;;;;;;;80.18;51.17;;;19.10;59.10;;;;;;4981321;28;93007;-45
2023/03/13 11:08:32;;;;;;;78.53;50.88;;;19.10;59.10;;;;;;4985414;28;94399;-49
2023/03/13 11:11:00;;;;;;;81.20;51.13;;;19.10;59.00;;;;;;4984260;28;92413;-46
2023/03/13 11:13:52;;;;;;;80.90;51.33;;;19.10;59.10;;;;;;4996754;28;93961;-46
2023/03/13 11:16:25;;;;;;;79.10;50.97;;;19.10;59.00;;;;;;4989595;28;91065;-48
2023/03/13 11:19:12;;;;;;;81.25;50.95;;;19.10;58.90;;;;;;4985914;28;93051;-46
2023/03/13 11:22:00;;;;;;;79.65;51.25;;;19.10;58.90;;;;;;4978012;28;95008;-48
2023/03/13 11:24:35;;;;;;;78.90;50.95;;;19.10;59.00;;;;;;4993818;28;90635;-45
2023/03/13 11:27:39;;;;;;;79.00;50.97;;;19.10;58.90;;;;;;4988540;28;89222;-45
2023/03/13 11:30:32;;;;;;;79.63;51.22;;;19.10;58.70;;;;;;4973719;28;91023;-45
2023/03/13 11:33:16;;;;;;;80.22;51.55;;;19.20;58.70;;;;;;4990750;28;91131;-45
2023/03/13 11:35:52;;;;;;;79.22;51.15;;;19.20;58.70;;;;;;4987310;28;93724;-45
2023/03/13 11:38:26;;;;;;;79.72;51.22;;;19.20;58.70;;;;;;4985572;28;90325;-46
2023/03/13 11:41:31;;;;;;;82.20;51.45;;;19.20;58.70;;;;;;4983791;28;90500;-46
2023/03/13 11:44:15;;;;;;;79.05;50.88;;;19.20;58.60;;;;;;4988282;28;95415;-46
2023/03/13 11:46:56;;;;;;;79.00;50.95;;;19.30;58.60;;;;;;4984884;28;91275;-46
2023/03/13 11:49:50;;;;;;;82.32;51.15;;;19.30;58.60;;;;;;4980980;28;89940;-46
2023/03/13 11:52:37;;;;;;;81.25;51.53;;;19.30;58.50;;;;;;4988252;28;90482;-47
2023/03/13 11:55:05;;;;;;;78.32;50.85;;;19.30;58.30;;;;;;4990389;28;92104;-45
2023/03/13 11:57:39;;;;;;;79.40;50.95;;;19.30;58.30;;;;;;4994916;28;92617;-44
2023/03/13 12:00:16;;;;;;;80.65;51.60;;;19.30;58.60;;;;;;4997128;28;91864;-46
2023/03/13 12:02:50;;;;;;;79.70;51.25;;;19.30;58.70;;;;;;4983344;28;95140;-46
2023/03/13 12:05:18;;;;;;;80.20;51.00;;;19.30;58.70;;;;;;4987836;28;93061;-47
2023/03/13 12:08:00;;;;;;;78.95;50.92;;;19.40;58.70;;;;;;4977202;28;92892;-48
2023/03/13 12:10:40;;;;;;;82.22;51.58;;;19.40;58.70;;;;;;4987105;28;90998;-47
2023/03/13 12:13:30;;;;;;;81.03;51.25;;;19.50;58.70;;;;;;4984357;28;90398;-46
2023/03/13 12:16:00;;;;;;;79.57;51.17;;;19.50;58.70;;;;;;4986741;28;91615;-47
2023/03/13 12:18:34;;;;;;;80.70;51.40;;;19.50;58.50;;;;;;4991574;28;91679;-48
2023/03/13 12:21:27;;;;;;;79.90;51.05;;;19.50;58.50;;;;;;4996455;28;90341;-47
2023/03/13 12:24:11;;;;;;;79.68;51.20;;;19.60;58.50;;;;;;4990242;28;91404;-46
2023/03/13 12:26:42;;;;;;;80.50;51.13;;;19.60;58.40;;;;;;4983565;28;92005;-45
2023/03/13 12:29:38;;;;;;;81.53;51.50;;;19.60;58.40;;;;;;4992275;28;91144;-46
2023/03/13 12:32:13;;;;;;;80.22;51.28;;;19.70;58.30;;;;;;4993947;28;92532;-47
2023/03/13 12:34:45;;;;;;;82.65;51.58;;;19.70;58.30;;;;;;4983202;28;92590;-47
2023/03/13 12:37:22;;;;;;;80.07;51.35;;;19.70;58.20;;;;;;4979768;28;94248;-45